createdAt,value
2017-11-26T00:00:12.597Z,0.00
2017-11-26T00:01:11.952Z,0.00
2017-11-26T00:02:12.010Z,0.00
2017-11-26T00:03:11.585Z,0.00
2017-11-26T00:04:12.189Z,0.00
2017-11-26T00:05:13.436Z,0.00
2017-11-26T00:06:13.012Z,0.00
2017-11-26T00:07:12.598Z,0.00
2017-11-26T00:08:11.652Z,0.00
2017-11-26T00:09:12.585Z,0.00
2017-11-26T00:10:12.343Z,0.00
2017-11-26T00:11:11.671Z,0.00
2017-11-26T00:12:12.464Z,0.00
2017-11-26T00:13:11.797Z,0.00
2017-11-26T00:14:11.334Z,0.00
2017-11-26T00:15:12.182Z,0.00
2017-11-26T00:16:12.227Z,0.00
2017-11-26T00:17:11.644Z,0.00
2017-11-26T00:18:11.951Z,0.00
2017-11-26T00:19:11.885Z,0.00
2017-11-26T00:20:11.757Z,0.00
2017-11-26T00:21:12.392Z,0.00
2017-11-26T00:22:11.248Z,0.00
2017-11-26T00:23:12.007Z,0.00
2017-11-26T00:24:13.192Z,0.00
2017-11-26T00:25:12.056Z,0.00
2017-11-26T00:26:12.012Z,0.00
2017-11-26T00:27:12.291Z,0.00
2017-11-26T00:28:11.921Z,0.00
2017-11-26T00:29:14.590Z,0.00
2017-11-26T00:30:11.932Z,0.00
2017-11-26T00:31:12.075Z,0.00
2017-11-26T00:32:11.270Z,0.00
2017-11-26T00:33:12.147Z,0.00
2017-11-26T00:34:11.733Z,0.00
2017-11-26T00:35:13.926Z,0.00
2017-11-26T00:36:12.089Z,0.00
2017-11-26T00:37:12.071Z,0.00
2017-11-26T00:38:12.218Z,0.00
2017-11-26T00:39:15.648Z,0.00
2017-11-26T00:40:12.678Z,0.00
2017-11-26T00:41:11.482Z,0.00
2017-11-26T00:42:12.980Z,0.00
2017-11-26T00:43:11.301Z,0.00
2017-11-26T00:44:11.737Z,0.00
2017-11-26T00:45:11.220Z,0.00
2017-11-26T00:46:12.138Z,0.00
2017-11-26T00:47:13.720Z,0.00
2017-11-26T00:48:11.794Z,0.00
2017-11-26T00:49:12.039Z,0.00
2017-11-26T00:50:13.262Z,0.00
2017-11-26T00:51:12.209Z,0.00
2017-11-26T00:52:11.468Z,0.00
2017-11-26T00:53:12.820Z,0.00
2017-11-26T00:54:12.765Z,0.00
2017-11-26T00:55:11.824Z,0.00
2017-11-26T00:56:12.568Z,0.00
2017-11-26T00:57:11.733Z,0.00
2017-11-26T00:58:12.792Z,0.00
2017-11-26T00:59:11.857Z,0.00
2017-11-26T01:00:12.595Z,0.00
2017-11-26T01:01:11.785Z,0.00
2017-11-26T01:02:12.342Z,0.00
2017-11-26T01:03:17.435Z,0.00
2017-11-26T01:04:11.441Z,0.00
2017-11-26T01:05:11.289Z,0.00
2017-11-26T01:10:35.472Z,0.00
2017-11-26T01:11:35.258Z,0.00
2017-11-26T01:12:35.242Z,0.00
2017-11-26T01:13:35.290Z,0.00
2017-11-26T01:14:35.945Z,0.00
2017-11-26T01:15:36.078Z,0.00
2017-11-26T01:16:36.062Z,0.00
2017-11-26T01:17:35.108Z,0.00
2017-11-26T01:18:36.050Z,0.00
2017-11-26T01:19:35.402Z,0.00
2017-11-26T01:20:35.633Z,0.00
2017-11-26T01:21:36.046Z,0.00
2017-11-26T01:22:35.906Z,0.00
2017-11-26T01:23:36.816Z,0.00
2017-11-26T01:24:35.705Z,0.00
2017-11-26T01:25:36.699Z,0.00
2017-11-26T01:26:36.355Z,0.00
2017-11-26T01:27:35.241Z,0.00
2017-11-26T01:28:36.033Z,0.00
2017-11-26T01:29:35.584Z,0.00
2017-11-26T01:30:35.397Z,0.00
2017-11-26T01:31:37.413Z,0.00
2017-11-26T01:32:36.490Z,0.00
2017-11-26T01:33:35.781Z,0.00
2017-11-26T01:34:35.268Z,0.00
2017-11-26T01:35:35.450Z,0.00
2017-11-26T01:36:35.670Z,0.00
2017-11-26T01:37:36.289Z,0.00
2017-11-26T01:38:36.568Z,0.00
2017-11-26T01:39:35.311Z,0.00
2017-11-26T01:40:34.942Z,0.00
2017-11-26T01:41:35.794Z,0.00
2017-11-26T01:42:36.600Z,0.00
2017-11-26T01:43:35.493Z,0.00
2017-11-26T01:44:35.773Z,0.00
2017-11-26T01:45:35.459Z,0.00
2017-11-26T01:46:35.365Z,0.00
2017-11-26T01:47:35.471Z,0.00
2017-11-26T01:48:35.397Z,0.00
2017-11-26T01:49:35.628Z,0.00
2017-11-26T01:50:35.048Z,0.00
2017-11-26T01:51:34.654Z,0.00
2017-11-26T01:52:34.755Z,0.00
2017-11-26T01:53:35.171Z,0.00
2017-11-26T01:54:35.459Z,0.00
2017-11-26T01:55:35.352Z,0.00
2017-11-26T01:56:36.149Z,0.00
2017-11-26T01:57:35.638Z,0.00
2017-11-26T01:58:35.801Z,0.00
2017-11-26T01:59:35.707Z,0.00
2017-11-26T02:00:35.108Z,0.00
2017-11-26T02:01:35.282Z,0.00
2017-11-26T02:02:35.456Z,0.00
2017-11-26T02:03:35.771Z,0.00
2017-11-26T02:04:35.515Z,0.00
2017-11-26T02:05:36.609Z,0.00
2017-11-26T02:06:36.292Z,0.00
2017-11-26T02:07:35.985Z,0.00
2017-11-26T02:08:35.826Z,0.00
2017-11-26T02:09:35.665Z,0.00
2017-11-26T02:10:35.229Z,0.00
2017-11-26T02:11:35.776Z,0.00
2017-11-26T02:12:35.521Z,0.00
2017-11-26T02:13:35.637Z,0.00
2017-11-26T02:14:34.883Z,0.00
2017-11-26T02:15:35.478Z,0.00
2017-11-26T02:16:35.269Z,0.00
2017-11-26T02:17:34.900Z,0.00
2017-11-26T02:18:35.349Z,0.00
2017-11-26T02:19:35.709Z,0.00
2017-11-26T02:20:35.270Z,0.00
2017-11-26T02:21:34.933Z,0.00
2017-11-26T02:22:35.366Z,0.00
2017-11-26T02:23:35.491Z,0.00
2017-11-26T02:24:34.979Z,0.00
2017-11-26T02:25:35.396Z,0.00
2017-11-26T02:26:35.474Z,0.00
2017-11-26T02:27:35.161Z,0.00
2017-11-26T02:28:34.762Z,0.00
2017-11-26T02:29:35.134Z,0.00
2017-11-26T02:30:35.248Z,0.00
2017-11-26T02:31:35.234Z,0.00
2017-11-26T02:32:35.760Z,0.00
2017-11-26T02:33:34.946Z,0.00
2017-11-26T02:34:35.697Z,0.00
2017-11-26T02:35:35.560Z,0.00
2017-11-26T02:36:35.629Z,0.00
2017-11-26T02:37:35.434Z,0.00
2017-11-26T02:38:34.926Z,0.00
2017-11-26T02:39:35.641Z,0.00
2017-11-26T02:40:35.328Z,0.00
2017-11-26T02:41:35.962Z,0.00
2017-11-26T02:42:35.095Z,0.00
2017-11-26T02:43:35.649Z,0.00
2017-11-26T02:44:35.295Z,0.00
2017-11-26T02:45:35.099Z,0.00
2017-11-26T02:46:35.620Z,0.00
2017-11-26T02:47:35.170Z,0.00
2017-11-26T02:48:35.008Z,0.00
2017-11-26T02:49:35.011Z,0.00
2017-11-26T02:50:35.634Z,0.00
2017-11-26T02:51:35.282Z,0.00
2017-11-26T02:52:36.095Z,0.00
2017-11-26T02:53:35.883Z,0.00
2017-11-26T02:54:35.619Z,0.00
2017-11-26T02:55:35.335Z,0.00
2017-11-26T02:56:34.939Z,0.00
2017-11-26T02:57:35.368Z,0.00
2017-11-26T02:58:36.145Z,0.00
2017-11-26T02:59:35.091Z,0.00
2017-11-26T03:00:35.586Z,0.00
2017-11-26T03:01:35.202Z,0.00
2017-11-26T03:02:35.674Z,0.00
2017-11-26T03:03:35.571Z,0.00
2017-11-26T03:04:35.422Z,0.00
2017-11-26T03:05:34.955Z,0.00
2017-11-26T03:06:35.622Z,0.00
2017-11-26T03:07:35.139Z,0.00
2017-11-26T03:08:35.698Z,0.00
2017-11-26T03:09:35.573Z,0.00
2017-11-26T03:10:35.124Z,0.00
2017-11-26T03:11:35.775Z,0.00
2017-11-26T03:12:35.463Z,0.00
2017-11-26T03:13:35.287Z,0.00
2017-11-26T03:14:34.835Z,0.00
2017-11-26T03:15:35.442Z,0.00
2017-11-26T03:16:35.693Z,0.00
2017-11-26T03:17:35.284Z,0.00
2017-11-26T03:18:34.923Z,0.00
2017-11-26T03:19:35.430Z,0.00
2017-11-26T03:20:34.989Z,0.00
2017-11-26T03:21:35.479Z,0.00
2017-11-26T03:22:35.041Z,0.00
2017-11-26T03:23:35.682Z,0.00
2017-11-26T03:24:35.392Z,0.00
2017-11-26T03:25:35.369Z,0.00
2017-11-26T03:26:35.041Z,0.00
2017-11-26T03:27:35.749Z,0.00
2017-11-26T03:28:35.747Z,0.00
2017-11-26T03:29:35.383Z,0.00
2017-11-26T03:30:35.628Z,0.00
2017-11-26T03:31:35.347Z,0.00
2017-11-26T03:32:35.513Z,0.00
2017-11-26T03:33:35.008Z,0.00
2017-11-26T03:34:35.297Z,0.00
2017-11-26T03:35:34.882Z,0.00
2017-11-26T03:36:35.488Z,0.00
2017-11-26T03:37:36.995Z,0.00
2017-11-26T03:38:35.870Z,0.00
2017-11-26T03:39:35.534Z,0.00
2017-11-26T03:40:35.128Z,0.00
2017-11-26T03:41:35.390Z,0.00
2017-11-26T03:42:34.943Z,0.00
2017-11-26T03:43:35.861Z,0.00
2017-11-26T03:44:35.451Z,0.00
2017-11-26T03:45:35.253Z,0.00
2017-11-26T03:46:35.696Z,0.00
2017-11-26T03:47:35.325Z,0.00
2017-11-26T03:48:35.526Z,0.00
2017-11-26T03:49:35.186Z,0.00
2017-11-26T03:50:35.180Z,0.00
2017-11-26T03:51:34.871Z,0.00
2017-11-26T03:52:35.442Z,0.00
2017-11-26T03:53:35.029Z,0.00
2017-11-26T03:54:36.176Z,0.00
2017-11-26T03:55:35.729Z,0.00
2017-11-26T03:56:35.762Z,0.00
2017-11-26T03:57:35.504Z,0.00
2017-11-26T03:58:35.283Z,0.00
2017-11-26T03:59:34.864Z,0.00
2017-11-26T04:00:35.447Z,0.00
2017-11-26T04:01:35.258Z,0.00
2017-11-26T04:02:35.050Z,0.00
2017-11-26T04:03:35.822Z,0.00
2017-11-26T04:04:35.265Z,0.00
2017-11-26T04:05:36.018Z,0.00
2017-11-26T04:06:35.344Z,0.00
2017-11-26T04:07:35.031Z,0.00
2017-11-26T04:08:35.562Z,0.00
2017-11-26T04:09:35.055Z,0.00
2017-11-26T04:10:35.663Z,0.00
2017-11-26T04:11:35.415Z,0.00
2017-11-26T04:12:35.126Z,0.00
2017-11-26T04:13:35.608Z,0.00
2017-11-26T04:14:34.952Z,0.00
2017-11-26T04:15:35.353Z,0.00
2017-11-26T04:16:34.912Z,0.00
2017-11-26T04:17:35.262Z,0.00
2017-11-26T04:18:34.645Z,0.00
2017-11-26T04:19:35.107Z,0.00
2017-11-26T04:20:35.562Z,0.00
2017-11-26T04:21:35.069Z,0.00
2017-11-26T04:22:35.508Z,0.00
2017-11-26T04:23:34.930Z,0.00
2017-11-26T04:24:35.461Z,0.00
2017-11-26T04:25:34.868Z,0.00
2017-11-26T04:26:35.219Z,0.00
2017-11-26T04:27:35.631Z,0.00
2017-11-26T04:28:35.079Z,0.00
2017-11-26T04:29:35.478Z,0.00
2017-11-26T04:30:34.855Z,0.00
2017-11-26T04:31:35.326Z,0.00
2017-11-26T04:32:34.910Z,0.00
2017-11-26T04:33:35.226Z,0.00
2017-11-26T04:34:35.538Z,0.00
2017-11-26T04:35:35.208Z,0.00
2017-11-26T04:36:35.612Z,0.00
2017-11-26T04:37:34.995Z,0.00
2017-11-26T04:38:35.153Z,0.00
2017-11-26T04:39:35.553Z,0.00
2017-11-26T04:40:34.995Z,0.00
2017-11-26T04:41:34.707Z,0.00
2017-11-26T04:42:35.251Z,0.00
2017-11-26T04:43:34.919Z,0.00
2017-11-26T04:44:35.666Z,0.00
2017-11-26T04:45:35.206Z,0.00
2017-11-26T04:46:35.639Z,0.00
2017-11-26T04:47:35.168Z,0.00
2017-11-26T04:48:35.399Z,0.00
2017-11-26T04:49:34.880Z,0.00
2017-11-26T04:50:34.921Z,0.00
2017-11-26T04:51:35.426Z,0.00
2017-11-26T04:52:34.971Z,0.00
2017-11-26T04:53:35.781Z,0.00
2017-11-26T04:54:35.652Z,0.00
2017-11-26T04:55:35.207Z,0.00
2017-11-26T04:56:35.210Z,0.00
2017-11-26T04:57:34.915Z,0.00
2017-11-26T04:58:35.622Z,0.00
2017-11-26T04:59:35.448Z,0.00
2017-11-26T05:00:34.958Z,0.00
2017-11-26T05:01:36.091Z,0.00
2017-11-26T05:02:35.561Z,0.00
2017-11-26T05:03:35.014Z,0.00
2017-11-26T05:04:35.409Z,0.00
2017-11-26T05:05:34.806Z,0.00
2017-11-26T05:06:35.517Z,0.00
2017-11-26T05:07:35.462Z,0.00
2017-11-26T05:08:35.402Z,0.00
2017-11-26T05:09:34.993Z,0.00
2017-11-26T05:10:35.398Z,0.00
2017-11-26T05:11:34.890Z,0.00
2017-11-26T05:12:35.623Z,0.00
2017-11-26T05:13:35.248Z,0.00
2017-11-26T05:14:35.986Z,0.00
2017-11-26T05:15:35.466Z,0.00
2017-11-26T05:16:34.931Z,0.00
2017-11-26T05:17:36.168Z,0.00
2017-11-26T05:18:35.073Z,0.00
2017-11-26T05:19:35.439Z,0.00
2017-11-26T05:20:35.161Z,0.00
2017-11-26T05:21:35.550Z,0.00
2017-11-26T05:22:35.035Z,0.00
2017-11-26T05:23:35.631Z,0.00
2017-11-26T05:24:35.279Z,0.00
2017-11-26T05:25:34.784Z,0.00
2017-11-26T05:26:35.467Z,0.00
2017-11-26T05:27:35.407Z,0.00
2017-11-26T05:28:35.728Z,0.00
2017-11-26T05:29:35.140Z,0.00
2017-11-26T05:30:35.711Z,0.00
2017-11-26T05:31:35.365Z,0.00
2017-11-26T05:32:36.185Z,0.00
2017-11-26T05:33:35.715Z,0.00
2017-11-26T05:34:35.102Z,0.00
2017-11-26T05:35:34.884Z,0.00
2017-11-26T05:36:35.329Z,0.00
2017-11-26T05:37:35.532Z,0.00
2017-11-26T05:38:35.709Z,0.00
2017-11-26T05:39:35.294Z,0.00
2017-11-26T05:40:34.750Z,0.00
2017-11-26T05:41:35.468Z,0.00
2017-11-26T05:42:35.088Z,0.00
2017-11-26T05:43:35.723Z,0.00
2017-11-26T05:44:35.142Z,0.00
2017-11-26T05:45:34.924Z,0.00
2017-11-26T05:46:35.670Z,0.00
2017-11-26T05:47:35.649Z,0.00
2017-11-26T05:48:35.835Z,0.00
2017-11-26T05:49:36.259Z,0.00
2017-11-26T05:50:34.896Z,0.00
2017-11-26T05:51:35.832Z,0.00
2017-11-26T05:52:35.171Z,0.00
2017-11-26T05:53:36.076Z,0.00
2017-11-26T05:54:36.904Z,0.00
2017-11-26T05:55:35.319Z,0.00
2017-11-26T05:56:35.018Z,0.00
2017-11-26T05:57:35.637Z,0.00
2017-11-26T05:58:35.452Z,0.00
2017-11-26T05:59:35.153Z,0.00
2017-11-26T06:00:35.739Z,0.00
2017-11-26T06:01:35.678Z,0.00
2017-11-26T06:02:35.435Z,0.00
2017-11-26T06:03:35.112Z,0.00
2017-11-26T06:04:35.841Z,0.00
2017-11-26T06:05:35.732Z,0.00
2017-11-26T06:06:34.827Z,0.00
2017-11-26T06:07:35.587Z,0.00
2017-11-26T06:08:35.735Z,0.00
2017-11-26T06:09:34.859Z,0.00
2017-11-26T06:10:35.470Z,0.00
2017-11-26T06:11:35.451Z,0.00
2017-11-26T06:12:35.956Z,0.00
2017-11-26T06:13:35.819Z,0.00
2017-11-26T06:14:35.706Z,0.00
2017-11-26T06:15:35.689Z,0.00
2017-11-26T06:16:35.190Z,0.00
2017-11-26T06:17:35.258Z,0.00
2017-11-26T06:18:35.278Z,0.00
2017-11-26T06:19:35.683Z,0.00
2017-11-26T06:20:35.341Z,1.00
2017-11-26T06:21:35.815Z,1.00
2017-11-26T06:22:35.221Z,0.00
2017-11-26T06:23:35.553Z,1.00
2017-11-26T06:24:35.755Z,1.00
2017-11-26T06:25:36.569Z,2.00
2017-11-26T06:26:34.970Z,2.00
2017-11-26T06:27:35.461Z,1.00
2017-11-26T06:28:34.927Z,2.00
2017-11-26T06:29:35.453Z,2.00
2017-11-26T06:30:35.096Z,2.00
2017-11-26T06:31:35.493Z,3.00
2017-11-26T06:32:34.991Z,3.00
2017-11-26T06:33:35.548Z,3.00
2017-11-26T06:34:34.971Z,4.00
2017-11-26T06:35:35.284Z,6.00
2017-11-26T06:36:35.721Z,6.00
2017-11-26T06:37:35.184Z,9.00
2017-11-26T06:38:35.636Z,9.00
2017-11-26T06:39:35.062Z,9.00
2017-11-26T06:40:35.685Z,10.00
2017-11-26T06:41:35.097Z,13.00
2017-11-26T06:42:35.488Z,16.00
2017-11-26T06:43:35.009Z,18.00
2017-11-26T06:44:35.210Z,20.00
2017-11-26T06:45:35.696Z,16.00
2017-11-26T06:46:35.311Z,25.00
2017-11-26T06:47:35.738Z,30.00
2017-11-26T06:48:35.131Z,39.00
2017-11-26T06:49:35.555Z,37.00
2017-11-26T06:50:35.407Z,28.00
2017-11-26T06:51:34.926Z,24.00
2017-11-26T06:52:36.369Z,31.00
2017-11-26T06:53:34.959Z,39.00
2017-11-26T06:54:35.632Z,50.00
2017-11-26T06:55:35.114Z,67.00
2017-11-26T06:56:35.553Z,78.00
2017-11-26T06:57:34.855Z,74.00
2017-11-26T06:58:35.337Z,73.00
2017-11-26T06:59:35.079Z,72.00
2017-11-26T07:00:35.646Z,78.00
2017-11-26T07:01:35.099Z,104.00
2017-11-26T07:02:35.210Z,134.00
2017-11-26T07:03:35.698Z,149.00
2017-11-26T07:04:35.185Z,150.00
2017-11-26T07:05:35.936Z,154.00
2017-11-26T07:06:35.357Z,172.00
2017-11-26T07:07:47.384Z,161.00
2017-11-26T07:09:23.322Z,248.00
2017-11-26T07:10:23.214Z,231.00
2017-11-26T07:11:24.018Z,241.00
2017-11-26T07:12:23.446Z,240.00
2017-11-26T07:13:23.168Z,302.00
2017-11-26T07:14:23.109Z,416.00
2017-11-26T07:15:23.526Z,506.00
2017-11-26T07:16:23.251Z,591.00
2017-11-26T07:17:23.758Z,703.00
2017-11-26T07:18:23.125Z,666.00
2017-11-26T07:19:23.545Z,653.00
2017-11-26T07:20:24.108Z,552.00
2017-11-26T07:21:23.616Z,480.00
2017-11-26T07:22:23.095Z,550.00
2017-11-26T07:23:23.614Z,520.00
2017-11-26T07:24:23.173Z,545.00
2017-11-26T07:25:23.766Z,668.00
2017-11-26T07:26:23.215Z,724.00
2017-11-26T07:27:23.657Z,793.00
2017-11-26T07:28:23.087Z,887.00
2017-11-26T07:29:23.548Z,967.00
2017-11-26T07:30:23.613Z,966.00
2017-11-26T07:31:23.089Z,950.00
2017-11-26T07:32:23.621Z,1033.00
2017-11-26T07:33:23.164Z,1065.00
2017-11-26T07:34:23.790Z,878.00
2017-11-26T07:35:23.374Z,935.00
2017-11-26T07:36:23.906Z,942.00
2017-11-26T07:37:23.564Z,1037.00
2017-11-26T07:38:24.093Z,1083.00
2017-11-26T07:39:23.639Z,1132.00
2017-11-26T07:40:23.188Z,1096.00
2017-11-26T07:41:23.603Z,1130.00
2017-11-26T07:42:24.066Z,1241.00
2017-11-26T07:43:23.654Z,1259.00
2017-11-26T07:44:23.138Z,1455.00
2017-11-26T07:45:23.705Z,1621.00
2017-11-26T07:46:23.312Z,1737.00
2017-11-26T07:47:23.924Z,1474.00
2017-11-26T07:48:23.828Z,1406.00
2017-11-26T07:49:23.452Z,1351.00
2017-11-26T07:50:24.210Z,1479.00
2017-11-26T07:51:24.013Z,1906.00
2017-11-26T07:52:23.665Z,1845.00
2017-11-26T07:53:23.525Z,2232.00
2017-11-26T07:54:23.626Z,2046.00
2017-11-26T07:55:24.425Z,1262.00
2017-11-26T07:56:24.071Z,1067.00
2017-11-26T07:57:23.838Z,1126.00
2017-11-26T07:58:23.540Z,860.00
2017-11-26T07:59:23.254Z,898.00
2017-11-26T08:00:23.977Z,1059.00
2017-11-26T08:01:23.678Z,1151.00
2017-11-26T08:02:23.174Z,1461.00
2017-11-26T08:03:23.810Z,2006.00
2017-11-26T08:04:23.390Z,1897.00
2017-11-26T08:05:23.288Z,1799.00
2017-11-26T08:06:23.847Z,1695.00
2017-11-26T08:07:23.753Z,1719.00
2017-11-26T08:08:23.619Z,1697.00
2017-11-26T08:09:23.460Z,1723.00
2017-11-26T08:10:23.736Z,1736.00
2017-11-26T08:11:23.692Z,1331.00
2017-11-26T08:12:23.489Z,1224.00
2017-11-26T08:13:23.447Z,1415.00
2017-11-26T08:14:23.366Z,1707.00
2017-11-26T08:15:24.652Z,1721.00
2017-11-26T08:16:23.738Z,1500.00
2017-11-26T08:17:23.728Z,1543.00
2017-11-26T08:18:23.953Z,1875.00
2017-11-26T08:19:23.781Z,2328.00
2017-11-26T08:20:23.469Z,2967.00
2017-11-26T08:21:23.792Z,2847.00
2017-11-26T08:22:23.649Z,2466.00
2017-11-26T08:23:23.409Z,2953.00
2017-11-26T08:24:24.181Z,2373.00
2017-11-26T08:25:23.894Z,2502.00
2017-11-26T08:26:23.827Z,2389.00
2017-11-26T08:27:23.746Z,2311.00
2017-11-26T08:28:23.598Z,2645.00
2017-11-26T08:29:23.589Z,2313.00
2017-11-26T08:30:23.693Z,2769.00
2017-11-26T08:31:23.643Z,3381.00
2017-11-26T08:32:23.670Z,3496.00
2017-11-26T08:33:23.482Z,3360.00
2017-11-26T08:34:24.120Z,2503.00
2017-11-26T08:35:23.613Z,1992.00
2017-11-26T08:36:25.219Z,1832.00
2017-11-26T08:37:23.974Z,2034.00
2017-11-26T08:38:23.427Z,2343.00
2017-11-26T08:39:24.139Z,1920.00
2017-11-26T08:40:24.056Z,2490.00
2017-11-26T08:41:23.934Z,3003.00
2017-11-26T08:42:23.686Z,2345.00
2017-11-26T08:43:23.588Z,1991.00
2017-11-26T08:44:23.918Z,2620.00
2017-11-26T08:45:23.728Z,2853.00
2017-11-26T08:46:23.836Z,2462.00
2017-11-26T08:47:23.603Z,2042.00
2017-11-26T08:48:23.414Z,1975.00
2017-11-26T08:49:24.379Z,1788.00
2017-11-26T08:50:23.992Z,1221.00
2017-11-26T08:51:23.584Z,1079.00
2017-11-26T08:52:23.335Z,1069.00
2017-11-26T08:53:23.386Z,1630.00
2017-11-26T08:54:24.223Z,1949.00
2017-11-26T08:55:23.968Z,2336.00
2017-11-26T08:56:23.671Z,2485.00
2017-11-26T08:57:24.061Z,2564.00
2017-11-26T08:58:23.964Z,2156.00
2017-11-26T08:59:23.804Z,2468.00
2017-11-26T09:00:23.540Z,2552.00
2017-11-26T09:01:23.583Z,2780.00
2017-11-26T09:02:23.324Z,3151.00
2017-11-26T09:03:24.684Z,3279.00
2017-11-26T09:04:23.687Z,3372.00
2017-11-26T09:05:23.739Z,3116.00
2017-11-26T09:06:23.749Z,2576.00
2017-11-26T09:07:24.270Z,2199.00
2017-11-26T09:08:24.169Z,2183.00
2017-11-26T09:09:23.766Z,2587.00
2017-11-26T09:10:24.335Z,2852.00
2017-11-26T09:11:24.322Z,2762.00
2017-11-26T09:12:24.364Z,2290.00
2017-11-26T09:13:24.150Z,2067.00
2017-11-26T09:14:24.222Z,2589.00
2017-11-26T09:15:25.218Z,2435.00
2017-11-26T09:16:24.543Z,2632.00
2017-11-26T09:17:23.597Z,2745.00
2017-11-26T09:18:24.149Z,3137.00
2017-11-26T09:19:24.623Z,2957.00
2017-11-26T09:20:24.502Z,2504.00
2017-11-26T09:21:24.518Z,2832.00
2017-11-26T09:22:23.937Z,2838.00
2017-11-26T09:23:23.815Z,2746.00
2017-11-26T09:24:24.635Z,2766.00
2017-11-26T09:25:26.431Z,2485.00
2017-11-26T09:26:24.509Z,2695.00
2017-11-26T09:27:27.302Z,3007.00
2017-11-26T09:28:25.666Z,3077.00
2017-11-26T09:29:24.891Z,3383.00
2017-11-26T09:30:23.991Z,3874.00
2017-11-26T09:31:23.720Z,4139.00
2017-11-26T09:32:23.889Z,3783.00
2017-11-26T09:33:24.595Z,3144.00
2017-11-26T09:34:23.551Z,2651.00
2017-11-26T09:35:23.494Z,3069.00
2017-11-26T09:36:23.462Z,3048.00
2017-11-26T09:37:24.434Z,2671.00
2017-11-26T09:38:24.346Z,3070.00
2017-11-26T09:39:24.189Z,4147.00
2017-11-26T09:40:23.908Z,4627.00
2017-11-26T09:41:23.955Z,4275.00
2017-11-26T09:42:24.812Z,3471.00
2017-11-26T09:43:23.753Z,3130.00
2017-11-26T09:44:24.030Z,3401.00
2017-11-26T09:45:24.347Z,3086.00
2017-11-26T09:46:24.447Z,3157.00
2017-11-26T09:47:24.553Z,2936.00
2017-11-26T09:48:24.382Z,3032.00
2017-11-26T09:49:24.184Z,3326.00
2017-11-26T09:50:23.960Z,4115.00
2017-11-26T09:51:24.621Z,5000.00
2017-11-26T09:52:24.382Z,5451.00
2017-11-26T09:53:24.222Z,6191.00
2017-11-26T09:54:24.333Z,6195.00
2017-11-26T09:55:25.244Z,6700.00
2017-11-26T09:56:24.087Z,5061.00
2017-11-26T09:57:24.276Z,4369.00
2017-11-26T09:58:24.207Z,3526.00
2017-11-26T09:59:24.063Z,3496.00
2017-11-26T10:00:23.897Z,3171.00
2017-11-26T10:01:23.764Z,3037.00
2017-11-26T10:02:23.576Z,3421.00
2017-11-26T10:03:25.146Z,3561.00
2017-11-26T10:04:24.957Z,4960.00
2017-11-26T10:05:24.081Z,4809.00
2017-11-26T10:06:23.940Z,6049.00
2017-11-26T10:07:23.783Z,7842.00
2017-11-26T10:08:23.592Z,8396.00
2017-11-26T10:09:23.821Z,8712.00
2017-11-26T10:10:23.809Z,8630.00
2017-11-26T10:11:24.268Z,5792.00
2017-11-26T10:12:24.232Z,3996.00
2017-11-26T10:13:24.154Z,4557.00
2017-11-26T10:14:24.145Z,3554.00
2017-11-26T10:15:24.420Z,3431.00
2017-11-26T10:16:24.024Z,3379.00
2017-11-26T10:17:24.160Z,3419.00
2017-11-26T10:18:25.200Z,3638.00
2017-11-26T10:19:24.448Z,3650.00
2017-11-26T10:20:24.969Z,4393.00
2017-11-26T10:21:23.801Z,4919.00
2017-11-26T10:22:24.216Z,4498.00
2017-11-26T10:23:24.628Z,4372.00
2017-11-26T10:24:24.553Z,3900.00
2017-11-26T10:25:24.521Z,4517.00
2017-11-26T10:26:24.628Z,4075.00
2017-11-26T10:27:23.559Z,3403.00
2017-11-26T10:28:23.465Z,3754.00
2017-11-26T10:29:24.483Z,4863.00
2017-11-26T10:30:24.354Z,3763.00
2017-11-26T10:31:24.397Z,3781.00
2017-11-26T10:32:25.382Z,4106.00
2017-11-26T10:33:25.219Z,5573.00
2017-11-26T10:34:24.063Z,4991.00
2017-11-26T10:35:23.910Z,4532.00
2017-11-26T10:36:23.771Z,4788.00
2017-11-26T10:37:23.766Z,5253.00
2017-11-26T10:38:23.892Z,5119.00
2017-11-26T10:39:23.840Z,4694.00
2017-11-26T10:40:24.251Z,5057.00
2017-11-26T10:41:24.149Z,5904.00
2017-11-26T10:42:24.083Z,5415.00
2017-11-26T10:43:24.119Z,4906.00
2017-11-26T10:44:24.711Z,5295.00
2017-11-26T10:45:23.646Z,4774.00
2017-11-26T10:46:23.577Z,5779.00
2017-11-26T10:47:23.501Z,5811.00
2017-11-26T10:48:24.456Z,5666.00
2017-11-26T10:49:24.322Z,6006.00
2017-11-26T10:50:24.076Z,5519.00
2017-11-26T10:51:23.774Z,6954.00
2017-11-26T10:52:23.744Z,7717.00
2017-11-26T10:53:23.784Z,8768.00
2017-11-26T10:54:23.458Z,7444.00
2017-11-26T10:55:26.382Z,7936.00
2017-11-26T10:56:24.557Z,8965.00
2017-11-26T10:57:25.118Z,12269.00
2017-11-26T10:58:24.588Z,10171.00
2017-11-26T10:59:23.459Z,7324.00
2017-11-26T11:00:24.636Z,7277.00
2017-11-26T11:01:25.473Z,6703.00
2017-11-26T11:02:24.010Z,5661.00
2017-11-26T11:03:24.088Z,5379.00
2017-11-26T11:04:24.444Z,5491.00
2017-11-26T11:05:24.478Z,5913.00
2017-11-26T11:06:49.383Z,7392.00
2017-11-26T11:07:52.182Z,4806.00
2017-11-26T11:08:50.151Z,3652.00
2017-11-26T11:09:49.390Z,4358.00
2017-11-26T11:10:49.514Z,5924.00
2017-11-26T11:11:49.673Z,7179.00
2017-11-26T11:12:50.842Z,4968.00
2017-11-26T11:13:51.680Z,5215.00
2017-11-26T11:14:49.811Z,4569.00
2017-11-26T11:15:49.870Z,3811.00
2017-11-26T11:16:49.830Z,2825.00
2017-11-26T11:17:49.604Z,3198.00
2017-11-26T11:18:49.533Z,4090.00
2017-11-26T11:19:50.389Z,4194.00
2017-11-26T11:20:51.263Z,3883.00
2017-11-26T11:22:58.487Z,3178.00
2017-11-26T11:23:58.379Z,4714.00
2017-11-26T11:25:00.102Z,4928.00
2017-11-26T11:25:57.961Z,5731.00
2017-11-26T11:26:58.948Z,5621.00
2017-11-26T11:27:58.818Z,5092.00
2017-11-26T11:28:58.754Z,5478.00
2017-11-26T11:29:58.908Z,6928.00
2017-11-26T11:31:52.902Z,9146.00
2017-11-26T11:32:54.381Z,6523.00
2017-11-26T11:33:53.813Z,5003.00
2017-11-26T11:34:53.558Z,7025.00
2017-11-26T11:35:53.658Z,6871.00
2017-11-26T11:36:53.544Z,6453.00
2017-11-26T11:37:53.219Z,7528.00
2017-11-26T11:38:53.856Z,5644.00
2017-11-26T11:39:54.202Z,6290.00
2017-11-26T11:40:52.997Z,5400.00
2017-11-26T11:41:54.031Z,5128.00
2017-11-26T11:42:53.861Z,4541.00
2017-11-26T11:43:53.830Z,6178.00
2017-11-26T11:44:54.549Z,4609.00
2017-11-26T11:45:53.602Z,6039.00
2017-11-26T11:46:53.763Z,5810.00
2017-11-26T11:47:53.914Z,4657.00
2017-11-26T11:48:54.648Z,4174.00
2017-11-26T11:49:53.730Z,3761.00
2017-11-26T11:50:53.541Z,4398.00
2017-11-26T11:51:53.449Z,3937.00
2017-11-26T11:52:53.793Z,4053.00
2017-11-26T11:53:53.789Z,4243.00
2017-11-26T11:54:53.618Z,5006.00
2017-11-26T11:55:53.513Z,7422.00
2017-11-26T11:56:53.541Z,7847.00
2017-11-26T11:57:53.492Z,9528.00
2017-11-26T11:58:53.490Z,8843.00
2017-11-26T11:59:54.278Z,7469.00
2017-11-26T12:00:53.583Z,7213.00
2017-11-26T12:01:53.624Z,7773.00
2017-11-26T12:02:53.492Z,6065.00
2017-11-26T12:03:53.525Z,6334.00
2017-11-26T12:04:55.306Z,7611.00
2017-11-26T12:06:42.241Z,7812.00
2017-11-26T12:07:45.279Z,5162.00
2017-11-26T12:08:38.703Z,6229.00
2017-11-26T12:10:22.340Z,8318.00
2017-11-26T12:11:22.807Z,8333.00
2017-11-26T12:12:23.536Z,8587.00
2017-11-26T12:13:21.006Z,8690.00
2017-11-26T12:14:21.105Z,11410.00
2017-11-26T12:15:21.564Z,8983.00
2017-11-26T12:16:20.677Z,7994.00
2017-11-26T12:17:23.405Z,8951.00
2017-11-26T12:18:20.743Z,7540.00
2017-11-26T12:19:22.587Z,7675.00
2017-11-26T12:20:21.634Z,8693.00
2017-11-26T12:21:20.644Z,8257.00
2017-11-26T12:22:20.483Z,7657.00
2017-11-26T12:23:20.760Z,7418.00
2017-11-26T12:24:21.614Z,8023.00
2017-11-26T12:25:21.465Z,8141.00
2017-11-26T12:26:20.986Z,9253.00
2017-11-26T12:27:21.585Z,10639.00
2017-11-26T12:28:20.183Z,12207.00
2017-11-26T12:29:26.905Z,10467.00
2017-11-26T12:30:20.432Z,11197.00
2017-11-26T12:31:25.559Z,8799.00
2017-11-26T12:32:21.201Z,7336.00
2017-11-26T12:33:21.661Z,6688.00
2017-11-26T12:34:28.508Z,7706.00
2017-11-26T12:35:20.417Z,7034.00
2017-11-26T12:36:20.630Z,7155.00
2017-11-26T12:37:21.125Z,6252.00
2017-11-26T12:38:21.182Z,5505.00
2017-11-26T12:39:20.669Z,5129.00
2017-11-26T12:40:20.482Z,4269.00
2017-11-26T12:41:20.907Z,4093.00
2017-11-26T12:42:21.086Z,5699.00
2017-11-26T12:43:20.335Z,8174.00
2017-11-26T12:44:20.390Z,7286.00
2017-11-26T12:45:20.449Z,4755.00
2017-11-26T12:46:20.505Z,6067.00
2017-11-26T12:47:20.687Z,4730.00
2017-11-26T12:47:49.499Z,4058.00
2017-11-26T12:48:49.559Z,3410.00
2017-11-26T12:49:49.639Z,3364.00
2017-11-26T12:50:50.111Z,3235.00
2017-11-26T12:51:50.323Z,2672.00